createdAt,value
2023-02-26T00:00:14.862Z,40.88
2023-02-26T00:05:09.272Z,37.00
2023-02-26T00:07:36.047Z,38.25
2023-02-26T00:10:02.927Z,32.35
2023-02-26T00:12:30.294Z,37.65
2023-02-26T00:14:57.229Z,35.13
2023-02-26T00:17:49.090Z,32.08
2023-02-26T00:20:17.262Z,30.83
2023-02-26T00:22:44.616Z,35.58
2023-02-26T00:25:12.350Z,31.40
2023-02-26T00:27:39.381Z,28.55
2023-02-26T00:30:08.569Z,31.65
2023-02-26T00:32:36.206Z,29.25
2023-02-26T00:35:03.161Z,26.25
2023-02-26T00:38:04.554Z,27.35
2023-02-26T00:40:47.336Z,26.88
2023-02-26T00:43:19.154Z,25.25
2023-02-26T00:45:57.846Z,29.15
2023-02-26T00:48:50.711Z,26.63
2023-02-26T00:51:27.980Z,26.10
2023-02-26T00:54:15.481Z,24.30
2023-02-26T00:56:42.120Z,23.27
2023-02-26T00:59:08.731Z,22.73
2023-02-26T01:01:35.330Z,23.65
2023-02-26T01:04:02.199Z,21.38
2023-02-26T01:06:33.266Z,20.55
2023-02-26T01:09:15.715Z,21.13
2023-02-26T01:11:42.484Z,19.15
2023-02-26T01:14:09.364Z,17.27
2023-02-26T01:16:48.556Z,18.52
2023-02-26T01:19:30.627Z,16.98
2023-02-26T01:22:07.576Z,17.13
2023-02-26T01:24:36.438Z,18.50
2023-02-26T01:27:03.605Z,15.60
2023-02-26T01:29:30.266Z,14.15
2023-02-26T01:32:21.172Z,16.58
2023-02-26T01:34:53.714Z,14.90
2023-02-26T01:37:32.292Z,14.93
2023-02-26T01:40:24.179Z,15.50
2023-02-26T01:42:54.500Z,14.95
2023-02-26T01:45:31.539Z,14.25
2023-02-26T01:48:06.852Z,13.23
2023-02-26T01:50:36.735Z,12.43
2023-02-26T01:53:24.587Z,12.10
2023-02-26T01:56:17.197Z,12.23
2023-02-26T01:58:46.797Z,14.57
2023-02-26T02:01:13.342Z,10.82
2023-02-26T02:03:43.085Z,13.20
2023-02-26T02:06:16.550Z,14.88
2023-02-26T02:08:43.383Z,11.63
2023-02-26T02:11:12.405Z,10.50
2023-02-26T02:13:57.360Z,10.60
2023-02-26T02:16:46.584Z,10.82
2023-02-26T02:19:34.937Z,9.70
2023-02-26T02:22:27.205Z,11.10
2023-02-26T02:25:09.036Z,9.82
2023-02-26T02:27:51.920Z,10.00
2023-02-26T02:30:26.474Z,12.32
2023-02-26T02:33:03.513Z,9.93
2023-02-26T02:35:41.473Z,9.13
2023-02-26T02:38:16.500Z,10.85
2023-02-26T02:40:48.893Z,8.27
2023-02-26T02:43:17.690Z,9.77
2023-02-26T02:45:49.197Z,8.43
2023-02-26T02:48:26.079Z,8.43
2023-02-26T02:51:00.151Z,12.65
2023-02-26T02:53:34.290Z,8.23
2023-02-26T02:56:15.770Z,8.52
2023-02-26T02:58:55.171Z,8.73
2023-02-26T03:01:25.792Z,5.55
2023-02-26T03:04:00.621Z,7.88
2023-02-26T03:06:27.207Z,8.05
2023-02-26T03:08:54.387Z,6.53
2023-02-26T03:11:22.243Z,9.75
2023-02-26T03:13:50.542Z,6.28
2023-02-26T03:16:39.594Z,7.00
2023-02-26T03:19:27.765Z,5.50
2023-02-26T03:21:58.237Z,6.53
2023-02-26T03:24:51.833Z,6.10
2023-02-26T03:27:40.157Z,5.85
2023-02-26T03:30:15.971Z,5.00
2023-02-26T03:32:53.522Z,5.47
2023-02-26T03:35:52.002Z,5.55
2023-02-26T03:38:37.946Z,5.05
2023-02-26T03:41:11.109Z,6.18
2023-02-26T03:43:46.185Z,7.13
2023-02-26T03:46:19.387Z,5.63
2023-02-26T03:48:51.264Z,5.78
2023-02-26T03:51:19.047Z,4.10
2023-02-26T03:53:58.550Z,5.15
2023-02-26T03:56:40.506Z,6.07
2023-02-26T03:59:07.687Z,4.47
2023-02-26T04:01:44.221Z,3.83
2023-02-26T04:04:16.821Z,5.32
2023-02-26T04:06:44.327Z,5.30
2023-02-26T04:09:11.893Z,5.95
2023-02-26T04:11:39.737Z,5.47
2023-02-26T04:14:06.345Z,4.82
2023-02-26T04:16:32.889Z,4.53
2023-02-26T04:18:59.407Z,6.00
2023-02-26T04:21:25.918Z,6.22
2023-02-26T04:23:52.478Z,5.93
2023-02-26T04:26:19.003Z,5.15
2023-02-26T04:28:45.513Z,4.45
2023-02-26T04:31:12.280Z,3.60
2023-02-26T04:33:38.981Z,3.67
2023-02-26T04:36:05.979Z,5.95
2023-02-26T04:38:32.740Z,4.03
2023-02-26T04:40:59.265Z,4.32
2023-02-26T04:43:25.857Z,5.95
2023-02-26T04:45:52.448Z,4.53
2023-02-26T04:48:19.092Z,3.67
2023-02-26T04:50:45.902Z,4.03
2023-02-26T04:53:12.802Z,4.80
2023-02-26T04:55:41.025Z,2.78
2023-02-26T04:58:08.410Z,4.13
2023-02-26T05:00:35.377Z,3.75
2023-02-26T05:03:01.900Z,6.72
2023-02-26T05:05:28.423Z,3.38
2023-02-26T05:07:56.774Z,2.80
2023-02-26T05:10:24.116Z,2.92
2023-02-26T05:12:50.670Z,2.65
2023-02-26T05:15:17.279Z,6.10
2023-02-26T05:17:43.875Z,4.43
2023-02-26T05:20:11.078Z,2.72
2023-02-26T05:22:38.831Z,6.05
2023-02-26T05:25:06.317Z,3.75
2023-02-26T05:27:33.567Z,3.38
2023-02-26T05:30:00.211Z,4.40
2023-02-26T05:32:27.157Z,3.13
2023-02-26T05:34:53.785Z,3.25
2023-02-26T05:37:20.267Z,3.22
2023-02-26T05:39:46.785Z,3.80
2023-02-26T05:42:13.278Z,3.40
2023-02-26T05:44:39.764Z,3.08
2023-02-26T05:47:06.597Z,5.15
2023-02-26T05:49:33.186Z,2.88
2023-02-26T05:51:59.805Z,3.80
2023-02-26T05:54:26.463Z,1.95
2023-02-26T05:56:53.032Z,3.30
2023-02-26T05:59:19.513Z,3.25
2023-02-26T06:01:46.791Z,1.92
2023-02-26T06:04:13.435Z,3.67
2023-02-26T06:06:39.992Z,1.90
2023-02-26T06:09:06.552Z,3.08
2023-02-26T06:11:34.078Z,3.53
2023-02-26T06:14:00.861Z,2.97
2023-02-26T06:16:28.193Z,2.88
2023-02-26T06:18:54.961Z,3.28
2023-02-26T06:21:21.530Z,2.58
2023-02-26T06:23:48.058Z,3.08
2023-02-26T06:26:14.663Z,4.15
2023-02-26T06:28:41.772Z,4.13
2023-02-26T06:31:08.317Z,2.20
2023-02-26T06:33:34.837Z,2.45
2023-02-26T06:36:02.376Z,4.28
2023-02-26T06:38:29.228Z,4.85
2023-02-26T06:40:55.852Z,6.28
2023-02-26T06:43:22.710Z,2.88
2023-02-26T06:45:49.629Z,6.32
2023-02-26T06:48:16.258Z,5.80
2023-02-26T06:50:42.822Z,7.68
2023-02-26T06:53:09.660Z,9.50
2023-02-26T06:55:36.255Z,10.48
2023-02-26T06:58:02.787Z,9.35
2023-02-26T07:00:29.334Z,10.75
2023-02-26T07:02:56.124Z,10.95
2023-02-26T07:05:22.848Z,13.27
2023-02-26T07:07:49.379Z,15.35
2023-02-26T07:10:15.995Z,13.43
2023-02-26T07:12:42.672Z,12.52
2023-02-26T07:15:09.573Z,14.82
2023-02-26T07:17:36.288Z,14.93
2023-02-26T07:20:06.553Z,17.20
2023-02-26T07:22:33.862Z,16.65
2023-02-26T07:25:00.468Z,14.77
2023-02-26T07:27:27.233Z,16.52
2023-02-26T07:29:53.737Z,13.48
2023-02-26T07:32:20.304Z,14.82
2023-02-26T07:34:46.961Z,16.02
2023-02-26T07:37:13.692Z,18.05
2023-02-26T07:39:40.325Z,14.52
2023-02-26T07:42:06.870Z,19.52
2023-02-26T07:44:33.730Z,16.15
2023-02-26T07:47:00.271Z,16.58
2023-02-26T07:49:26.803Z,16.35
2023-02-26T07:51:53.614Z,15.40
2023-02-26T07:54:20.498Z,16.42
2023-02-26T07:56:47.079Z,18.10
2023-02-26T07:59:13.676Z,17.75
2023-02-26T08:01:40.268Z,23.95
2023-02-26T08:04:07.165Z,40.35
2023-02-26T08:06:34.576Z,47.72
2023-02-26T08:09:02.371Z,51.13
2023-02-26T08:11:29.216Z,51.85
2023-02-26T08:13:55.750Z,44.63
2023-02-26T08:16:22.258Z,48.95
2023-02-26T08:18:48.788Z,43.80
2023-02-26T08:21:15.379Z,45.42
2023-02-26T08:23:41.886Z,43.47
2023-02-26T08:26:10.252Z,44.75
2023-02-26T08:28:37.314Z,42.20
2023-02-26T08:31:04.083Z,41.90
2023-02-26T08:33:31.178Z,42.40
2023-02-26T08:35:59.087Z,42.85
2023-02-26T08:38:27.725Z,39.50
2023-02-26T08:40:54.389Z,40.95
2023-02-26T08:43:21.527Z,38.95
2023-02-26T08:45:48.612Z,40.97
2023-02-26T08:48:15.377Z,40.85
2023-02-26T08:50:41.961Z,35.58
2023-02-26T08:53:08.534Z,35.53
2023-02-26T08:55:35.030Z,35.17
2023-02-26T08:58:01.669Z,33.22
2023-02-26T09:00:28.514Z,34.65
2023-02-26T09:02:55.065Z,36.50
2023-02-26T09:05:22.075Z,32.70
2023-02-26T09:07:48.686Z,33.67
2023-02-26T09:10:16.207Z,32.60
2023-02-26T09:12:43.032Z,34.90
2023-02-26T09:15:10.950Z,31.13
2023-02-26T09:17:37.768Z,29.83
2023-02-26T09:20:05.175Z,31.30
2023-02-26T09:22:31.734Z,31.73
2023-02-26T09:24:58.546Z,29.50
2023-02-26T09:27:25.198Z,29.67
2023-02-26T09:29:51.717Z,28.75
2023-02-26T09:32:18.440Z,29.98
2023-02-26T09:34:44.982Z,29.00
2023-02-26T09:37:11.511Z,29.92
2023-02-26T09:39:38.121Z,25.55
2023-02-26T09:42:30.891Z,30.52
2023-02-26T09:45:00.096Z,28.00
2023-02-26T09:47:41.859Z,27.75
2023-02-26T09:50:20.273Z,32.35
2023-02-26T09:52:54.554Z,30.30
2023-02-26T09:55:31.620Z,27.25
2023-02-26T09:58:03.507Z,27.48
2023-02-26T10:00:43.807Z,26.13
2023-02-26T10:03:39.939Z,31.88
2023-02-26T10:06:21.381Z,29.98
2023-02-26T10:09:26.010Z,28.63
2023-02-26T10:14:37.413Z,33.40
2023-02-26T10:17:16.590Z,36.97
2023-02-26T10:19:47.822Z,33.42
2023-02-26T10:22:28.512Z,31.63
2023-02-26T10:25:23.929Z,32.85
2023-02-26T10:28:01.690Z,44.45
2023-02-26T10:31:04.919Z,41.75
2023-02-26T10:34:07.341Z,34.88
2023-02-26T10:36:51.959Z,38.20
2023-02-26T10:39:44.994Z,33.35
2023-02-26T10:42:33.762Z,33.17
2023-02-26T10:45:15.693Z,34.22
2023-02-26T10:47:56.586Z,30.95
2023-02-26T10:50:24.441Z,29.80
2023-02-26T10:52:52.784Z,33.17
2023-02-26T10:55:28.474Z,27.73
2023-02-26T10:58:24.848Z,28.33
2023-02-26T11:00:54.259Z,28.70
2023-02-26T11:03:22.301Z,26.35
2023-02-26T11:05:48.950Z,25.30
2023-02-26T11:08:20.700Z,31.17
2023-02-26T11:10:56.476Z,27.75
2023-02-26T11:13:26.127Z,28.33
2023-02-26T11:15:55.222Z,32.97
2023-02-26T11:18:27.320Z,27.95
2023-02-26T11:20:58.176Z,30.35
2023-02-26T11:23:29.626Z,28.77
2023-02-26T11:26:18.676Z,30.30
2023-02-26T11:28:53.537Z,25.27
2023-02-26T11:31:23.136Z,25.02
2023-02-26T11:33:53.368Z,24.80
2023-02-26T11:36:22.851Z,24.17
2023-02-26T11:38:56.429Z,26.50
2023-02-26T11:41:24.608Z,22.90
2023-02-26T11:44:05.130Z,25.23
2023-02-26T11:46:31.749Z,30.33
2023-02-26T11:49:01.247Z,27.60
2023-02-26T11:51:29.918Z,27.10
2023-02-26T11:54:02.814Z,25.80
2023-02-26T11:56:40.294Z,43.03
2023-02-26T11:59:16.797Z,27.23
2023-02-26T12:01:43.402Z,26.13
2023-02-26T12:04:12.830Z,29.90
2023-02-26T12:06:40.043Z,24.52
2023-02-26T12:09:12.696Z,28.55
2023-02-26T12:12:00.832Z,24.60
2023-02-26T12:14:36.636Z,25.17
2023-02-26T12:17:18.782Z,21.73
2023-02-26T12:20:19.943Z,25.05
2023-02-26T12:22:55.822Z,24.42
2023-02-26T12:25:46.390Z,21.63
2023-02-26T12:28:39.391Z,22.85
2023-02-26T12:31:18.185Z,17.38
2023-02-26T12:34:02.336Z,18.85
2023-02-26T12:36:55.018Z,19.45
2023-02-26T12:39:37.117Z,18.73
2023-02-26T12:42:31.417Z,19.02
2023-02-26T12:48:05.228Z,20.83
2023-02-26T12:50:43.856Z,18.40
2023-02-26T12:53:41.844Z,19.83
2023-02-26T12:56:26.320Z,24.00
2023-02-26T12:59:19.048Z,21.08
2023-02-26T13:02:01.756Z,20.13
2023-02-26T13:04:56.190Z,25.73
2023-02-26T13:10:40.136Z,23.60
2023-02-26T13:13:47.423Z,22.70
2023-02-26T13:16:26.234Z,20.35
2023-02-26T13:19:31.074Z,21.92
2023-02-26T13:22:03.420Z,21.90
2023-02-26T13:24:40.231Z,23.00
2023-02-26T13:27:09.817Z,21.25
2023-02-26T13:29:44.058Z,21.38
2023-02-26T13:32:25.877Z,24.90
2023-02-26T13:35:03.755Z,21.15
2023-02-26T13:37:55.747Z,20.00
2023-02-26T13:40:47.133Z,21.00
2023-02-26T13:43:16.919Z,20.13
2023-02-26T13:46:00.902Z,20.63
2023-02-26T13:51:10.764Z,22.02
2023-02-26T13:54:02.322Z,23.50
2023-02-26T13:56:31.582Z,22.33
2023-02-26T13:59:13.534Z,23.75
2023-02-26T14:01:53.704Z,22.73
2023-02-26T14:04:21.514Z,23.05
2023-02-26T14:06:57.244Z,23.13
2023-02-26T14:09:23.770Z,22.67
2023-02-26T14:12:12.950Z,20.30
2023-02-26T14:14:58.179Z,19.40
2023-02-26T14:17:39.967Z,21.13
2023-02-26T14:20:09.056Z,21.38
2023-02-26T14:22:41.804Z,22.80
2023-02-26T14:25:34.968Z,20.50
2023-02-26T14:28:26.758Z,21.60
2023-02-26T14:31:05.619Z,20.13
2023-02-26T14:33:44.696Z,21.65
2023-02-26T14:36:20.223Z,24.90
2023-02-26T14:38:48.748Z,19.05
2023-02-26T14:41:36.441Z,19.15
2023-02-26T14:44:37.274Z,18.48
2023-02-26T14:47:04.243Z,17.83
2023-02-26T14:49:37.258Z,20.30
2023-02-26T14:52:39.429Z,20.33
2023-02-26T14:55:45.834Z,18.25
2023-02-26T14:58:31.015Z,18.52
2023-02-26T15:01:30.699Z,18.02
2023-02-26T15:04:18.939Z,17.35
2023-02-26T15:07:13.238Z,16.55
2023-02-26T15:10:09.729Z,15.95
2023-02-26T15:13:13.849Z,16.83
2023-02-26T15:15:46.251Z,15.85
2023-02-26T15:18:42.354Z,15.25
2023-02-26T15:21:39.024Z,14.48
2023-02-26T15:24:07.634Z,17.58
2023-02-26T15:26:37.256Z,14.25
2023-02-26T15:29:07.170Z,14.38
2023-02-26T15:31:43.124Z,13.25
2023-02-26T15:34:12.876Z,16.23
2023-02-26T15:36:44.789Z,16.63
2023-02-26T15:39:16.109Z,15.55
2023-02-26T15:41:43.282Z,16.63
2023-02-26T15:44:14.737Z,17.35
2023-02-26T15:46:45.466Z,18.27
2023-02-26T15:49:26.826Z,18.92
2023-02-26T15:51:53.851Z,21.35
2023-02-26T15:54:24.086Z,20.15
2023-02-26T15:56:51.330Z,23.88
2023-02-26T15:59:22.029Z,22.15
2023-02-26T16:01:50.160Z,22.38
2023-02-26T16:04:19.840Z,23.77
2023-02-26T16:06:50.589Z,22.58
2023-02-26T16:09:31.348Z,23.25
2023-02-26T16:12:07.804Z,24.05
2023-02-26T16:14:39.276Z,24.08
2023-02-26T16:17:11.082Z,25.15
2023-02-26T16:19:45.862Z,26.52
2023-02-26T16:22:28.442Z,23.27
2023-02-26T16:25:02.706Z,26.75
2023-02-26T16:27:31.865Z,23.70
2023-02-26T16:30:01.669Z,22.33
2023-02-26T16:32:33.894Z,23.42
2023-02-26T16:35:08.159Z,24.27
2023-02-26T16:37:37.800Z,25.35
2023-02-26T16:40:19.037Z,26.38
2023-02-26T16:42:51.565Z,26.38
2023-02-26T16:45:25.337Z,22.52
2023-02-26T16:47:56.598Z,27.10
2023-02-26T16:50:29.573Z,44.45
2023-02-26T16:53:18.504Z,43.38
2023-02-26T16:55:56.732Z,44.67
2023-02-26T16:58:24.189Z,48.60
2023-02-26T17:00:58.147Z,55.47
2023-02-26T17:03:26.671Z,52.97
2023-02-26T17:06:04.363Z,52.25
2023-02-26T17:08:42.053Z,47.60
2023-02-26T17:11:21.685Z,49.55
2023-02-26T17:14:15.351Z,46.85
2023-02-26T17:16:42.000Z,50.35
2023-02-26T17:19:09.507Z,48.10
2023-02-26T17:21:41.944Z,51.92
2023-02-26T17:24:13.514Z,56.30
2023-02-26T17:26:40.163Z,69.10
2023-02-26T17:29:06.889Z,78.63
2023-02-26T17:31:33.403Z,78.28
2023-02-26T17:33:59.957Z,74.35
2023-02-26T17:36:26.669Z,76.13
2023-02-26T17:38:53.272Z,76.78
2023-02-26T17:41:19.941Z,81.63
2023-02-26T17:43:46.582Z,74.97
2023-02-26T17:46:13.252Z,76.60
2023-02-26T17:48:40.185Z,75.50
2023-02-26T17:51:07.289Z,70.72
2023-02-26T17:53:40.840Z,73.65
2023-02-26T17:58:38.584Z,69.75
2023-02-26T18:01:05.312Z,66.03
2023-02-26T18:03:32.334Z,64.57
2023-02-26T18:05:59.785Z,63.72
2023-02-26T18:08:31.574Z,64.13
2023-02-26T18:10:59.458Z,57.92
2023-02-26T18:13:27.205Z,60.97
2023-02-26T18:15:56.442Z,61.50
2023-02-26T18:18:24.306Z,59.85
2023-02-26T18:20:51.981Z,61.13
2023-02-26T18:23:18.895Z,60.28
2023-02-26T18:25:47.934Z,62.33
2023-02-26T18:28:24.315Z,64.25
2023-02-26T18:30:52.264Z,67.65
2023-02-26T18:33:20.240Z,74.20
2023-02-26T18:35:51.214Z,71.45
2023-02-26T18:38:22.384Z,75.88
2023-02-26T18:40:49.408Z,77.75
2023-02-26T18:43:16.058Z,79.47
2023-02-26T18:45:45.077Z,83.82
2023-02-26T18:48:15.909Z,82.65
2023-02-26T18:50:43.906Z,83.32
2023-02-26T18:53:11.099Z,81.63
2023-02-26T18:55:37.888Z,81.78
2023-02-26T18:58:04.927Z,82.65
2023-02-26T19:00:31.848Z,85.93
2023-02-26T19:02:58.388Z,81.25
2023-02-26T19:05:26.573Z,79.75
2023-02-26T19:07:54.304Z,76.25
2023-02-26T19:10:21.390Z,79.00
2023-02-26T19:12:47.947Z,234.13
2023-02-26T19:15:14.545Z,130.52
2023-02-26T19:17:42.286Z,107.22
2023-02-26T19:20:10.687Z,125.25
2023-02-26T19:22:37.463Z,109.05
2023-02-26T19:25:05.052Z,101.55
2023-02-26T19:27:31.971Z,100.03
2023-02-26T19:29:58.524Z,92.00
2023-02-26T19:32:26.604Z,84.80
2023-02-26T19:34:53.225Z,87.68
2023-02-26T19:37:19.911Z,85.22
2023-02-26T19:39:46.467Z,78.65
2023-02-26T19:42:13.130Z,77.85
2023-02-26T19:44:39.670Z,74.05
2023-02-26T19:47:06.496Z,67.22
2023-02-26T19:49:33.510Z,63.13
2023-02-26T19:52:00.098Z,67.00
2023-02-26T19:54:26.651Z,65.43
2023-02-26T19:56:53.212Z,62.00
2023-02-26T19:59:19.735Z,60.95
2023-02-26T20:01:49.226Z,55.28
2023-02-26T20:04:17.160Z,53.05
2023-02-26T20:06:43.919Z,51.72
2023-02-26T20:09:12.127Z,52.30
2023-02-26T20:11:39.620Z,48.00
2023-02-26T20:14:06.589Z,49.42
2023-02-26T20:16:33.144Z,46.85
2023-02-26T20:19:00.164Z,46.53
2023-02-26T20:21:27.375Z,47.38
2023-02-26T20:23:54.160Z,46.58
2023-02-26T20:26:20.856Z,44.50
2023-02-26T20:28:47.508Z,42.50
2023-02-26T20:31:14.270Z,45.67
2023-02-26T20:33:40.985Z,38.70
2023-02-26T20:36:08.942Z,39.75
2023-02-26T20:38:35.834Z,47.33
2023-02-26T20:41:02.838Z,47.13
2023-02-26T20:43:29.508Z,57.25
2023-02-26T20:45:56.612Z,55.80
2023-02-26T20:48:24.308Z,53.88
2023-02-26T20:50:53.517Z,55.08
2023-02-26T20:53:21.648Z,56.95
2023-02-26T20:55:48.726Z,55.67
2023-02-26T20:58:15.772Z,61.42
2023-02-26T21:00:42.850Z,57.63
2023-02-26T21:03:09.470Z,55.13
2023-02-26T21:05:36.020Z,59.78
2023-02-26T21:08:04.159Z,49.90
2023-02-26T21:10:32.686Z,57.50
2023-02-26T21:12:59.606Z,55.00
2023-02-26T21:15:26.127Z,53.47
2023-02-26T21:17:53.123Z,57.60
2023-02-26T21:20:22.076Z,57.10
2023-02-26T21:22:49.513Z,63.92
2023-02-26T21:25:16.668Z,70.25
2023-02-26T21:27:43.244Z,70.78
2023-02-26T21:30:12.204Z,66.25
2023-02-26T21:32:39.452Z,69.95
2023-02-26T21:35:07.681Z,72.88
2023-02-26T21:37:34.247Z,68.40
2023-02-26T21:40:00.845Z,64.97
2023-02-26T21:42:27.523Z,73.10
2023-02-26T21:44:54.330Z,69.40
2023-02-26T21:47:20.839Z,75.47
2023-02-26T21:49:47.339Z,66.75
2023-02-26T21:52:14.076Z,68.25
2023-02-26T21:54:40.935Z,73.45
2023-02-26T21:57:07.874Z,66.72
2023-02-26T21:59:35.270Z,68.35
2023-02-26T22:02:02.709Z,65.50
2023-02-26T22:04:29.618Z,66.78
2023-02-26T22:06:56.285Z,69.40
2023-02-26T22:09:23.001Z,64.25
2023-02-26T22:11:49.550Z,62.63
2023-02-26T22:14:16.138Z,66.15
2023-02-26T22:16:42.808Z,63.33
2023-02-26T22:19:09.403Z,63.40
2023-02-26T22:21:35.951Z,60.90
2023-02-26T22:24:03.817Z,62.55
2023-02-26T22:26:30.745Z,62.05
2023-02-26T22:28:59.596Z,62.42
2023-02-26T22:31:31.761Z,62.78
2023-02-26T22:33:59.077Z,58.45
2023-02-26T22:36:25.903Z,58.63
2023-02-26T22:38:52.489Z,56.30
2023-02-26T22:41:19.086Z,53.33
2023-02-26T22:43:45.610Z,58.55
2023-02-26T22:46:12.247Z,52.78
2023-02-26T22:48:38.841Z,56.08
2023-02-26T22:51:05.539Z,56.22
2023-02-26T22:53:32.214Z,49.72
2023-02-26T22:55:59.065Z,53.00
2023-02-26T22:58:25.629Z,46.40
2023-02-26T23:00:59.378Z,46.97
2023-02-26T23:05:52.823Z,47.03
2023-02-26T23:08:19.374Z,46.47
2023-02-26T23:10:45.893Z,45.42
2023-02-26T23:13:12.642Z,48.47
2023-02-26T23:15:39.182Z,49.38
2023-02-26T23:18:06.069Z,44.30
2023-02-26T23:20:32.590Z,40.58
2023-02-26T23:22:59.094Z,41.50
2023-02-26T23:25:26.617Z,44.75
2023-02-26T23:27:53.582Z,38.88
2023-02-26T23:30:21.891Z,40.25
2023-02-26T23:32:48.364Z,37.17
2023-02-26T23:35:15.223Z,36.67
2023-02-26T23:37:41.797Z,38.28
2023-02-26T23:40:09.053Z,35.63
2023-02-26T23:42:35.663Z,33.33
2023-02-26T23:45:02.201Z,35.78
2023-02-26T23:47:28.797Z,32.35
2023-02-26T23:49:55.435Z,31.83
2023-02-26T23:52:24.949Z,31.58
2023-02-26T23:54:52.393Z,32.40
2023-02-26T23:57:18.866Z,30.98
2023-02-26T23:59:45.401Z,30.23
